Pagina principale
METAR-TAF:

METAR-TAF

Aeroporti :

Montgomery, Alabama, Stati Uniti

latitudine: 32-18-01N, longitudine: 086-24-22W, altezza: 67 m

Osservazione

Il bollettino è stato emesso 43 minuti fa, alle 13:53 UTC
Vento 9 kt da nord-ovest
Temperature 14°C
Umidità 82%
Pressione 1020 hPa
Visibilità: 16.1 km
Cielo sereno

METAR: KMGM 261353Z 32009KT 10SM CLR 14/11 A3013 RMK AO2 SLP204 T01390106

Ora: 09:36 (14:36 UTC)

Previsione

Il bollettino è stato emesso 3 ore e 16 minuti fa, alle 11:20 UTC
Previsione valida dal 26 alle 12 UTC al 27 alle 12 UTC
Vento 8 kt da nord-ovest
Visibilità: 10 km
Nubi sparse ad un'altezza di 4000 ft
A partire da 26 alle 1400 UTC
Vento 12 kt da nord/nord-ovest con raffiche fino a 18 kt
Visibilità: 10 km
Nuvoloso ad un'altezza di 3500 ft
A partire da 26 alle 2300 UTC
Vento 10 kt da nord
Visibilità: 10 km
Nuvoloso ad un'altezza di 5000 ft

TAF: KMGM 261120Z 2612/2712 32008KT P6SM SCT040 FM261400 33012G18KT P6SM BKN035 FM262300 35010KT P6SM BKN050

Osservazioni e previsioni meteorologiche di più di 4000 aeroporti (messaggi METAR e TAF).

Le stazioni disponibili sono rappresentate dai dischi gialli e rossi sulla carta.

Puntare il mouse per vedere il nome della stazione.

Clicca sopra per visualizzare le osservazioni e previsioni meteorologiche.

Per cambiare la mappa : fare clic sui pulsanti verdi con una croce nera per ingrandire, il pulsante verde con un trattino per diminuire, o sulla freccia verde per le mappe adiacenti.


METAR-TAF: